sensor_id;sensor_type;location;lat;lon;timestamp;P1;durP1;ratioP1;P2;durP2;ratioP2
21581;SDS011;10952;50.836;4.348;2023-02-28T00:01:40;8.93;;;4.70;;
21581;SDS011;10952;50.836;4.348;2023-02-28T00:04:09;7.87;;;5.77;;
21581;SDS011;10952;50.836;4.348;2023-02-28T00:09:07;13.63;;;5.43;;
21581;SDS011;10952;50.836;4.348;2023-02-28T00:14:05;11.83;;;5.83;;
21581;SDS011;10952;50.836;4.348;2023-02-28T00:16:34;10.53;;;7.00;;
21581;SDS011;10952;50.836;4.348;2023-02-28T00:19:06;25.23;;;10.03;;
21581;SDS011;10952;50.836;4.348;2023-02-28T00:24:05;20.17;;;11.23;;
21581;SDS011;10952;50.836;4.348;2023-02-28T00:31:29;9.53;;;6.10;;
21581;SDS011;10952;50.836;4.348;2023-02-28T00:33:54;10.80;;;6.37;;
21581;SDS011;10952;50.836;4.348;2023-02-28T00:36:23;10.40;;;5.83;;
21581;SDS011;10952;50.836;4.348;2023-02-28T00:38:52;11.90;;;5.67;;
21581;SDS011;10952;50.836;4.348;2023-02-28T00:41:18;12.13;;;5.43;;
21581;SDS011;10952;50.836;4.348;2023-02-28T00:43:45;11.13;;;5.47;;
21581;SDS011;10952;50.836;4.348;2023-02-28T00:51:21;15.90;;;6.93;;
21581;SDS011;10952;50.836;4.348;2023-02-28T00:53:49;12.20;;;6.20;;
21581;SDS011;10952;50.836;4.348;2023-02-28T00:56:17;13.30;;;6.00;;
21581;SDS011;10952;50.836;4.348;2023-02-28T01:01:14;12.63;;;5.97;;
21581;SDS011;10952;50.836;4.348;2023-02-28T01:03:43;10.27;;;5.63;;
21581;SDS011;10952;50.836;4.348;2023-02-28T01:06:08;13.80;;;5.87;;
21581;SDS011;10952;50.836;4.348;2023-02-28T01:08:36;10.53;;;5.70;;
21581;SDS011;10952;50.836;4.348;2023-02-28T01:11:10;11.60;;;5.37;;
21581;SDS011;10952;50.836;4.348;2023-02-28T01:13:41;12.47;;;6.30;;
21581;SDS011;10952;50.836;4.348;2023-02-28T01:16:09;10.20;;;6.10;;
21581;SDS011;10952;50.836;4.348;2023-02-28T01:18:38;12.67;;;6.10;;
21581;SDS011;10952;50.836;4.348;2023-02-28T01:21:11;8.20;;;5.63;;
21581;SDS011;10952;50.836;4.348;2023-02-28T01:23:41;12.63;;;6.27;;
21581;SDS011;10952;50.836;4.348;2023-02-28T01:26:12;9.57;;;6.10;;
21581;SDS011;10952;50.836;4.348;2023-02-28T01:28:51;12.73;;;5.90;;
21581;SDS011;10952;50.836;4.348;2023-02-28T01:34:18;9.77;;;5.90;;
21581;SDS011;10952;50.836;4.348;2023-02-28T01:36:47;11.53;;;6.27;;
21581;SDS011;10952;50.836;4.348;2023-02-28T01:39:16;9.33;;;5.33;;
21581;SDS011;10952;50.836;4.348;2023-02-28T01:41:43;19.50;;;6.93;;
21581;SDS011;10952;50.836;4.348;2023-02-28T01:47:34;14.10;;;6.50;;
21581;SDS011;10952;50.836;4.348;2023-02-28T01:50:04;11.40;;;6.30;;
21581;SDS011;10952;50.836;4.348;2023-02-28T01:52:33;9.97;;;5.57;;
21581;SDS011;10952;50.836;4.348;2023-02-28T01:54:59;8.87;;;5.93;;
21581;SDS011;10952;50.836;4.348;2023-02-28T02:02:45;12.00;;;5.90;;
21581;SDS011;10952;50.836;4.348;2023-02-28T02:05:17;10.10;;;6.43;;
21581;SDS011;10952;50.836;4.348;2023-02-28T02:07:45;10.73;;;6.23;;
21581;SDS011;10952;50.836;4.348;2023-02-28T02:10:15;9.77;;;6.43;;
21581;SDS011;10952;50.836;4.348;2023-02-28T02:15:34;10.30;;;6.53;;
21581;SDS011;10952;50.836;4.348;2023-02-28T02:18:09;11.57;;;6.70;;
21581;SDS011;10952;50.836;4.348;2023-02-28T02:20:51;12.00;;;7.20;;
21581;SDS011;10952;50.836;4.348;2023-02-28T02:23:46;12.30;;;6.97;;
21581;SDS011;10952;50.836;4.348;2023-02-28T02:29:53;13.33;;;7.43;;
21581;SDS011;10952;50.836;4.348;2023-02-28T02:37:52;11.17;;;7.30;;
21581;SDS011;10952;50.836;4.348;2023-02-28T02:40:36;13.63;;;6.57;;
21581;SDS011;10952;50.836;4.348;2023-02-28T02:43:22;13.13;;;6.97;;
21581;SDS011;10952;50.836;4.348;2023-02-28T02:46:06;12.97;;;6.93;;
21581;SDS011;10952;50.836;4.348;2023-02-28T02:48:37;10.70;;;6.73;;
21581;SDS011;10952;50.836;4.348;2023-02-28T02:51:10;12.77;;;7.13;;
21581;SDS011;10952;50.836;4.348;2023-02-28T02:56:32;14.57;;;7.50;;
21581;SDS011;10952;50.836;4.348;2023-02-28T02:59:04;14.97;;;8.13;;
21581;SDS011;10952;50.836;4.348;2023-02-28T03:04:07;13.83;;;7.50;;
21581;SDS011;10952;50.836;4.348;2023-02-28T03:09:06;14.57;;;7.87;;
21581;SDS011;10952;50.836;4.348;2023-02-28T03:11:36;14.97;;;7.67;;
21581;SDS011;10952;50.836;4.348;2023-02-28T03:29:13;15.07;;;7.90;;
21581;SDS011;10952;50.836;4.348;2023-02-28T03:31:52;13.10;;;7.47;;
21581;SDS011;10952;50.836;4.348;2023-02-28T03:34:34;16.03;;;7.93;;
21581;SDS011;10952;50.836;4.348;2023-02-28T03:37:15;12.87;;;8.00;;
21581;SDS011;10952;50.836;4.348;2023-02-28T03:39:59;13.23;;;8.07;;
21581;SDS011;10952;50.836;4.348;2023-02-28T03:42:35;13.83;;;7.63;;
21581;SDS011;10952;50.836;4.348;2023-02-28T03:50:51;14.00;;;7.70;;
21581;SDS011;10952;50.836;4.348;2023-02-28T03:56:05;13.63;;;8.40;;
21581;SDS011;10952;50.836;4.348;2023-02-28T04:04:07;14.80;;;8.23;;
21581;SDS011;10952;50.836;4.348;2023-02-28T04:06:36;16.93;;;8.43;;
21581;SDS011;10952;50.836;4.348;2023-02-28T04:09:05;14.90;;;8.93;;
21581;SDS011;10952;50.836;4.348;2023-02-28T04:11:45;16.37;;;9.07;;
21581;SDS011;10952;50.836;4.348;2023-02-28T04:14:20;16.87;;;9.17;;
21581;SDS011;10952;50.836;4.348;2023-02-28T04:16:48;18.83;;;9.63;;
21581;SDS011;10952;50.836;4.348;2023-02-28T04:19:17;15.30;;;8.77;;
21581;SDS011;10952;50.836;4.348;2023-02-28T04:24:14;15.00;;;9.00;;
21581;SDS011;10952;50.836;4.348;2023-02-28T04:29:30;16.23;;;9.53;;
21581;SDS011;10952;50.836;4.348;2023-02-28T04:31:58;18.60;;;9.63;;
21581;SDS011;10952;50.836;4.348;2023-02-28T04:34:27;15.20;;;9.47;;
21581;SDS011;10952;50.836;4.348;2023-02-28T04:36:54;13.93;;;9.27;;
21581;SDS011;10952;50.836;4.348;2023-02-28T04:39:24;17.07;;;10.03;;
21581;SDS011;10952;50.836;4.348;2023-02-28T04:44:22;14.27;;;8.83;;
21581;SDS011;10952;50.836;4.348;2023-02-28T04:46:48;12.73;;;8.53;;
21581;SDS011;10952;50.836;4.348;2023-02-28T04:49:14;17.73;;;9.23;;
21581;SDS011;10952;50.836;4.348;2023-02-28T04:51:40;14.00;;;8.43;;
21581;SDS011;10952;50.836;4.348;2023-02-28T04:54:07;16.27;;;9.13;;
21581;SDS011;10952;50.836;4.348;2023-02-28T04:56:33;15.77;;;8.57;;
21581;SDS011;10952;50.836;4.348;2023-02-28T05:05:43;15.73;;;9.37;;
21581;SDS011;10952;50.836;4.348;2023-02-28T05:08:10;16.47;;;9.20;;
21581;SDS011;10952;50.836;4.348;2023-02-28T05:10:36;15.63;;;9.13;;
21581;SDS011;10952;50.836;4.348;2023-02-28T05:13:02;15.63;;;9.40;;
21581;SDS011;10952;50.836;4.348;2023-02-28T05:15:30;15.30;;;9.87;;
21581;SDS011;10952;50.836;4.348;2023-02-28T05:17:56;15.03;;;8.97;;
21581;SDS011;10952;50.836;4.348;2023-02-28T05:20:23;21.63;;;9.90;;
21581;SDS011;10952;50.836;4.348;2023-02-28T05:22:50;17.20;;;9.17;;
21581;SDS011;10952;50.836;4.348;2023-02-28T05:25:20;15.87;;;9.37;;
21581;SDS011;10952;50.836;4.348;2023-02-28T05:27:47;17.03;;;9.53;;
21581;SDS011;10952;50.836;4.348;2023-02-28T05:30:19;21.80;;;9.40;;
21581;SDS011;10952;50.836;4.348;2023-02-28T05:32:50;15.10;;;9.43;;
21581;SDS011;10952;50.836;4.348;2023-02-28T05:35:21;17.43;;;9.10;;
21581;SDS011;10952;50.836;4.348;2023-02-28T05:40:16;20.47;;;10.13;;
21581;SDS011;10952;50.836;4.348;2023-02-28T05:42:43;14.07;;;9.53;;
21581;SDS011;10952;50.836;4.348;2023-02-28T05:47:54;15.90;;;8.27;;
21581;SDS011;10952;50.836;4.348;2023-02-28T05:50:20;15.53;;;9.40;;
21581;SDS011;10952;50.836;4.348;2023-02-28T05:52:52;16.77;;;9.97;;
21581;SDS011;10952;50.836;4.348;2023-02-28T05:55:18;20.40;;;9.23;;
21581;SDS011;10952;50.836;4.348;2023-02-28T05:57:46;20.60;;;8.63;;
21581;SDS011;10952;50.836;4.348;2023-02-28T06:00:14;19.43;;;9.57;;
21581;SDS011;10952;50.836;4.348;2023-02-28T06:02:43;15.70;;;9.37;;
21581;SDS011;10952;50.836;4.348;2023-02-28T06:05:14;16.43;;;8.90;;
21581;SDS011;10952;50.836;4.348;2023-02-28T06:07:41;14.37;;;9.33;;
21581;SDS011;10952;50.836;4.348;2023-02-28T06:10:08;20.73;;;9.27;;
21581;SDS011;10952;50.836;4.348;2023-02-28T06:12:34;16.47;;;9.33;;
21581;SDS011;10952;50.836;4.348;2023-02-28T06:15:00;19.33;;;8.73;;
21581;SDS011;10952;50.836;4.348;2023-02-28T06:17:26;15.47;;;8.77;;
21581;SDS011;10952;50.836;4.348;2023-02-28T06:19:51;16.03;;;8.53;;
21581;SDS011;10952;50.836;4.348;2023-02-28T06:24:48;18.47;;;8.60;;
21581;SDS011;10952;50.836;4.348;2023-02-28T06:29:45;18.50;;;9.50;;
21581;SDS011;10952;50.836;4.348;2023-02-28T06:32:14;17.00;;;9.30;;
21581;SDS011;10952;50.836;4.348;2023-02-28T06:34:43;13.50;;;8.80;;
21581;SDS011;10952;50.836;4.348;2023-02-28T06:37:09;22.37;;;8.77;;
21581;SDS011;10952;50.836;4.348;2023-02-28T06:39:38;17.37;;;9.17;;
21581;SDS011;10952;50.836;4.348;2023-02-28T06:42:05;14.60;;;8.27;;
21581;SDS011;10952;50.836;4.348;2023-02-28T06:44:34;17.03;;;9.47;;
21581;SDS011;10952;50.836;4.348;2023-02-28T06:47:02;11.70;;;8.17;;
21581;SDS011;10952;50.836;4.348;2023-02-28T06:49:32;19.03;;;8.60;;
21581;SDS011;10952;50.836;4.348;2023-02-28T06:52:00;17.00;;;9.47;;
21581;SDS011;10952;50.836;4.348;2023-02-28T06:54:25;15.33;;;9.10;;
21581;SDS011;10952;50.836;4.348;2023-02-28T06:56:55;16.33;;;9.23;;
21581;SDS011;10952;50.836;4.348;2023-02-28T06:59:25;13.20;;;8.47;;
21581;SDS011;10952;50.836;4.348;2023-02-28T07:01:51;16.10;;;9.40;;
21581;SDS011;10952;50.836;4.348;2023-02-28T07:04:18;17.17;;;9.23;;
21581;SDS011;10952;50.836;4.348;2023-02-28T07:06:47;18.23;;;8.80;;
21581;SDS011;10952;50.836;4.348;2023-02-28T07:09:13;20.77;;;9.03;;
21581;SDS011;10952;50.836;4.348;2023-02-28T07:11:40;18.70;;;9.53;;
21581;SDS011;10952;50.836;4.348;2023-02-28T07:14:07;19.80;;;9.07;;
21581;SDS011;10952;50.836;4.348;2023-02-28T07:16:37;22.40;;;9.90;;
21581;SDS011;10952;50.836;4.348;2023-02-28T07:19:02;19.40;;;8.93;;
21581;SDS011;10952;50.836;4.348;2023-02-28T07:21:30;14.30;;;8.40;;
21581;SDS011;10952;50.836;4.348;2023-02-28T07:23:56;16.50;;;9.10;;
21581;SDS011;10952;50.836;4.348;2023-02-28T07:26:22;17.43;;;8.50;;
21581;SDS011;10952;50.836;4.348;2023-02-28T07:28:49;16.57;;;9.23;;
21581;SDS011;10952;50.836;4.348;2023-02-28T07:31:15;25.27;;;8.83;;
21581;SDS011;10952;50.836;4.348;2023-02-28T07:33:45;15.97;;;9.03;;
21581;SDS011;10952;50.836;4.348;2023-02-28T07:36:12;16.73;;;8.97;;
21581;SDS011;10952;50.836;4.348;2023-02-28T07:38:43;21.17;;;9.60;;
21581;SDS011;10952;50.836;4.348;2023-02-28T07:41:21;17.13;;;8.47;;
21581;SDS011;10952;50.836;4.348;2023-02-28T07:43:52;14.30;;;7.00;;
21581;SDS011;10952;50.836;4.348;2023-02-28T07:46:23;13.40;;;7.37;;
21581;SDS011;10952;50.836;4.348;2023-02-28T07:48:52;14.27;;;7.40;;
21581;SDS011;10952;50.836;4.348;2023-02-28T07:51:22;14.47;;;6.80;;
21581;SDS011;10952;50.836;4.348;2023-02-28T07:53:50;12.73;;;7.47;;
21581;SDS011;10952;50.836;4.348;2023-02-28T07:58:48;11.37;;;6.50;;
21581;SDS011;10952;50.836;4.348;2023-02-28T08:01:14;19.60;;;6.80;;
21581;SDS011;10952;50.836;4.348;2023-02-28T08:03:43;13.57;;;7.03;;
21581;SDS011;10952;50.836;4.348;2023-02-28T08:06:16;14.40;;;7.20;;
21581;SDS011;10952;50.836;4.348;2023-02-28T08:08:51;14.40;;;7.07;;
21581;SDS011;10952;50.836;4.348;2023-02-28T08:11:19;13.43;;;7.07;;
21581;SDS011;10952;50.836;4.348;2023-02-28T08:13:47;13.17;;;7.20;;
21581;SDS011;10952;50.836;4.348;2023-02-28T08:16:15;18.13;;;6.13;;
21581;SDS011;10952;50.836;4.348;2023-02-28T08:18:50;11.07;;;6.10;;
21581;SDS011;10952;50.836;4.348;2023-02-28T08:21:19;12.50;;;5.53;;
21581;SDS011;10952;50.836;4.348;2023-02-28T08:23:50;13.63;;;5.83;;
21581;SDS011;10952;50.836;4.348;2023-02-28T08:26:17;12.60;;;5.53;;
21581;SDS011;10952;50.836;4.348;2023-02-28T08:28:46;15.83;;;5.33;;
21581;SDS011;10952;50.836;4.348;2023-02-28T08:31:17;9.00;;;4.90;;
21581;SDS011;10952;50.836;4.348;2023-02-28T08:33:45;10.73;;;4.80;;
21581;SDS011;10952;50.836;4.348;2023-02-28T08:36:15;9.13;;;4.40;;
21581;SDS011;10952;50.836;4.348;2023-02-28T08:38:43;9.03;;;4.70;;
21581;SDS011;10952;50.836;4.348;2023-02-28T08:41:11;7.47;;;4.40;;
21581;SDS011;10952;50.836;4.348;2023-02-28T08:43:37;10.37;;;4.07;;
21581;SDS011;10952;50.836;4.348;2023-02-28T08:46:04;12.20;;;5.17;;
21581;SDS011;10952;50.836;4.348;2023-02-28T08:48:31;7.33;;;4.27;;
21581;SDS011;10952;50.836;4.348;2023-02-28T08:50:58;8.53;;;4.40;;
21581;SDS011;10952;50.836;4.348;2023-02-28T08:53:26;8.20;;;5.17;;
21581;SDS011;10952;50.836;4.348;2023-02-28T08:55:59;10.50;;;4.80;;
21581;SDS011;10952;50.836;4.348;2023-02-28T08:58:26;9.67;;;4.03;;
21581;SDS011;10952;50.836;4.348;2023-02-28T09:00:52;8.90;;;4.60;;
21581;SDS011;10952;50.836;4.348;2023-02-28T09:03:19;7.10;;;3.93;;
21581;SDS011;10952;50.836;4.348;2023-02-28T09:05:52;7.40;;;4.00;;
21581;SDS011;10952;50.836;4.348;2023-02-28T09:08:22;17.17;;;4.80;;
21581;SDS011;10952;50.836;4.348;2023-02-28T09:10:49;12.23;;;5.10;;
21581;SDS011;10952;50.836;4.348;2023-02-28T09:13:16;8.83;;;4.57;;
21581;SDS011;10952;50.836;4.348;2023-02-28T09:15:42;7.17;;;3.70;;
21581;SDS011;10952;50.836;4.348;2023-02-28T09:18:07;9.27;;;5.03;;
21581;SDS011;10952;50.836;4.348;2023-02-28T09:20:37;14.30;;;4.03;;
21581;SDS011;10952;50.836;4.348;2023-02-28T09:23:03;8.57;;;3.53;;
21581;SDS011;10952;50.836;4.348;2023-02-28T09:25:29;5.77;;;3.87;;
21581;SDS011;10952;50.836;4.348;2023-02-28T09:27:54;12.50;;;4.00;;
21581;SDS011;10952;50.836;4.348;2023-02-28T09:30:20;6.53;;;3.97;;
21581;SDS011;10952;50.836;4.348;2023-02-28T09:32:46;6.17;;;4.07;;
21581;SDS011;10952;50.836;4.348;2023-02-28T09:35:17;7.27;;;3.40;;
21581;SDS011;10952;50.836;4.348;2023-02-28T09:37:43;7.60;;;4.50;;
21581;SDS011;10952;50.836;4.348;2023-02-28T09:40:09;18.40;;;3.90;;
21581;SDS011;10952;50.836;4.348;2023-02-28T09:42:38;19.03;;;4.20;;
21581;SDS011;10952;50.836;4.348;2023-02-28T09:45:12;6.07;;;3.33;;
21581;SDS011;10952;50.836;4.348;2023-02-28T09:47:47;4.33;;;2.93;;
21581;SDS011;10952;50.836;4.348;2023-02-28T09:50:29;6.33;;;3.33;;
21581;SDS011;10952;50.836;4.348;2023-02-28T09:53:02;11.50;;;3.60;;
21581;SDS011;10952;50.836;4.348;2023-02-28T09:55:47;8.60;;;4.80;;
21581;SDS011;10952;50.836;4.348;2023-02-28T09:58:23;7.10;;;3.83;;
21581;SDS011;10952;50.836;4.348;2023-02-28T10:01:19;7.30;;;3.27;;
21581;SDS011;10952;50.836;4.348;2023-02-28T10:06:19;7.00;;;3.67;;
21581;SDS011;10952;50.836;4.348;2023-02-28T10:08:56;6.07;;;3.17;;
21581;SDS011;10952;50.836;4.348;2023-02-28T10:11:32;5.80;;;3.07;;
21581;SDS011;10952;50.836;4.348;2023-02-28T10:14:19;9.80;;;3.70;;
21581;SDS011;10952;50.836;4.348;2023-02-28T10:16:52;6.80;;;3.73;;
21581;SDS011;10952;50.836;4.348;2023-02-28T10:19:44;4.90;;;3.27;;
21581;SDS011;10952;50.836;4.348;2023-02-28T10:22:12;6.43;;;3.47;;
21581;SDS011;10952;50.836;4.348;2023-02-28T10:24:43;7.30;;;2.50;;
21581;SDS011;10952;50.836;4.348;2023-02-28T10:27:15;6.17;;;2.97;;
21581;SDS011;10952;50.836;4.348;2023-02-28T10:29:47;7.23;;;3.20;;
21581;SDS011;10952;50.836;4.348;2023-02-28T10:32:15;10.33;;;3.20;;
21581;SDS011;10952;50.836;4.348;2023-02-28T10:34:44;9.70;;;4.63;;
21581;SDS011;10952;50.836;4.348;2023-02-28T10:37:11;6.60;;;3.23;;
21581;SDS011;10952;50.836;4.348;2023-02-28T10:39:40;3.00;;;2.33;;
21581;SDS011;10952;50.836;4.348;2023-02-28T10:42:21;7.93;;;2.67;;
21581;SDS011;10952;50.836;4.348;2023-02-28T10:47:35;7.97;;;3.30;;
21581;SDS011;10952;50.836;4.348;2023-02-28T10:50:27;3.33;;;2.20;;
21581;SDS011;10952;50.836;4.348;2023-02-28T10:55:36;8.60;;;2.93;;
21581;SDS011;10952;50.836;4.348;2023-02-28T10:58:02;5.87;;;2.73;;
21581;SDS011;10952;50.836;4.348;2023-02-28T11:00:32;9.93;;;3.10;;
21581;SDS011;10952;50.836;4.348;2023-02-28T11:03:01;6.17;;;3.23;;
21581;SDS011;10952;50.836;4.348;2023-02-28T11:05:31;6.03;;;3.10;;
21581;SDS011;10952;50.836;4.348;2023-02-28T11:08:06;5.10;;;2.63;;
21581;SDS011;10952;50.836;4.348;2023-02-28T11:10:36;4.57;;;2.30;;
21581;SDS011;10952;50.836;4.348;2023-02-28T11:13:02;6.23;;;2.53;;
21581;SDS011;10952;50.836;4.348;2023-02-28T11:15:37;7.43;;;2.27;;
21581;SDS011;10952;50.836;4.348;2023-02-28T11:20:56;5.67;;;2.50;;
21581;SDS011;10952;50.836;4.348;2023-02-28T11:23:28;3.83;;;2.37;;
21581;SDS011;10952;50.836;4.348;2023-02-28T11:25:58;5.27;;;2.70;;
21581;SDS011;10952;50.836;4.348;2023-02-28T11:28:33;4.60;;;2.33;;
21581;SDS011;10952;50.836;4.348;2023-02-28T11:33:54;5.07;;;2.33;;
21581;SDS011;10952;50.836;4.348;2023-02-28T11:36:22;7.80;;;3.43;;
21581;SDS011;10952;50.836;4.348;2023-02-28T11:38:50;3.77;;;2.47;;
21581;SDS011;10952;50.836;4.348;2023-02-28T11:47:12;4.10;;;2.57;;
21581;SDS011;10952;50.836;4.348;2023-02-28T12:05:44;6.07;;;3.13;;
21581;SDS011;10952;50.836;4.348;2023-02-28T12:17:11;5.43;;;3.20;;
21581;SDS011;10952;50.836;4.348;2023-02-28T12:28:25;3.83;;;2.43;;
21581;SDS011;10952;50.836;4.348;2023-02-28T12:30:56;7.60;;;2.70;;
21581;SDS011;10952;50.836;4.348;2023-02-28T12:33:27;4.73;;;2.57;;
21581;SDS011;10952;50.836;4.348;2023-02-28T12:35:59;7.30;;;3.17;;
21581;SDS011;10952;50.836;4.348;2023-02-28T12:38:45;5.77;;;2.70;;
21581;SDS011;10952;50.836;4.348;2023-02-28T12:41:34;4.57;;;2.50;;
21581;SDS011;10952;50.836;4.348;2023-02-28T12:44:06;5.77;;;3.07;;
21581;SDS011;10952;50.836;4.348;2023-02-28T12:46:41;6.13;;;2.30;;
21581;SDS011;10952;50.836;4.348;2023-02-28T12:51:56;7.13;;;3.50;;
21581;SDS011;10952;50.836;4.348;2023-02-28T12:59:57;5.27;;;2.80;;
21581;SDS011;10952;50.836;4.348;2023-02-28T13:02:59;9.50;;;3.30;;
21581;SDS011;10952;50.836;4.348;2023-02-28T13:11:07;6.50;;;2.60;;
21581;SDS011;10952;50.836;4.348;2023-02-28T13:14:29;7.10;;;2.73;;
21581;SDS011;10952;50.836;4.348;2023-02-28T13:19:34;3.80;;;2.80;;
21581;SDS011;10952;50.836;4.348;2023-02-28T13:22:02;4.07;;;2.90;;
21581;SDS011;10952;50.836;4.348;2023-02-28T13:29:37;6.37;;;2.70;;
21581;SDS011;10952;50.836;4.348;2023-02-28T13:39:53;5.80;;;3.10;;
21581;SDS011;10952;50.836;4.348;2023-02-28T13:55:41;6.70;;;3.00;;
21581;SDS011;10952;50.836;4.348;2023-02-28T14:07:00;7.37;;;3.40;;
21581;SDS011;10952;50.836;4.348;2023-02-28T14:09:29;6.17;;;3.00;;
21581;SDS011;10952;50.836;4.348;2023-02-28T14:15:18;8.33;;;4.20;;
21581;SDS011;10952;50.836;4.348;2023-02-28T14:17:54;7.30;;;3.63;;
21581;SDS011;10952;50.836;4.348;2023-02-28T14:20:21;4.83;;;2.87;;
21581;SDS011;10952;50.836;4.348;2023-02-28T14:23:12;5.17;;;2.87;;
21581;SDS011;10952;50.836;4.348;2023-02-28T14:26:00;10.80;;;3.07;;
21581;SDS011;10952;50.836;4.348;2023-02-28T14:31:10;7.67;;;2.90;;
21581;SDS011;10952;50.836;4.348;2023-02-28T14:36:23;9.93;;;3.50;;
21581;SDS011;10952;50.836;4.348;2023-02-28T14:38:59;5.83;;;2.90;;
21581;SDS011;10952;50.836;4.348;2023-02-28T14:41:30;11.30;;;3.90;;
21581;SDS011;10952;50.836;4.348;2023-02-28T14:44:02;9.90;;;3.30;;
21581;SDS011;10952;50.836;4.348;2023-02-28T14:46:40;7.83;;;3.70;;
21581;SDS011;10952;50.836;4.348;2023-02-28T14:49:12;7.33;;;3.03;;
21581;SDS011;10952;50.836;4.348;2023-02-28T14:51:47;6.17;;;3.27;;
21581;SDS011;10952;50.836;4.348;2023-02-28T14:54:15;5.43;;;2.80;;
21581;SDS011;10952;50.836;4.348;2023-02-28T14:56:44;6.23;;;3.17;;
21581;SDS011;10952;50.836;4.348;2023-02-28T15:05:01;11.90;;;3.87;;
21581;SDS011;10952;50.836;4.348;2023-02-28T15:07:42;6.10;;;3.67;;
21581;SDS011;10952;50.836;4.348;2023-02-28T15:10:19;5.40;;;3.90;;
21581;SDS011;10952;50.836;4.348;2023-02-28T15:12:57;4.30;;;3.27;;
21581;SDS011;10952;50.836;4.348;2023-02-28T15:15:38;10.07;;;3.93;;
21581;SDS011;10952;50.836;4.348;2023-02-28T15:18:45;9.07;;;3.80;;
21581;SDS011;10952;50.836;4.348;2023-02-28T15:21:13;8.80;;;3.50;;
21581;SDS011;10952;50.836;4.348;2023-02-28T15:23:44;5.33;;;3.63;;
21581;SDS011;10952;50.836;4.348;2023-02-28T15:26:19;5.47;;;3.50;;
21581;SDS011;10952;50.836;4.348;2023-02-28T15:28:48;7.83;;;3.50;;
21581;SDS011;10952;50.836;4.348;2023-02-28T15:33:58;8.07;;;3.70;;
21581;SDS011;10952;50.836;4.348;2023-02-28T15:36:31;4.60;;;3.43;;
21581;SDS011;10952;50.836;4.348;2023-02-28T15:38:58;6.93;;;3.37;;
21581;SDS011;10952;50.836;4.348;2023-02-28T15:41:28;7.27;;;4.83;;
21581;SDS011;10952;50.836;4.348;2023-02-28T15:44:17;6.30;;;4.17;;
21581;SDS011;10952;50.836;4.348;2023-02-28T15:47:05;9.87;;;3.43;;
21581;SDS011;10952;50.836;4.348;2023-02-28T15:49:47;6.57;;;3.90;;
21581;SDS011;10952;50.836;4.348;2023-02-28T15:52:22;10.63;;;4.23;;
21581;SDS011;10952;50.836;4.348;2023-02-28T15:55:06;5.07;;;3.63;;
21581;SDS011;10952;50.836;4.348;2023-02-28T15:57:37;12.87;;;3.87;;
21581;SDS011;10952;50.836;4.348;2023-02-28T16:00:06;10.40;;;5.03;;
21581;SDS011;10952;50.836;4.348;2023-02-28T16:02:37;12.17;;;3.90;;
21581;SDS011;10952;50.836;4.348;2023-02-28T16:07:34;8.67;;;3.40;;
21581;SDS011;10952;50.836;4.348;2023-02-28T16:10:10;9.10;;;3.53;;
21581;SDS011;10952;50.836;4.348;2023-02-28T16:12:39;7.67;;;4.57;;
21581;SDS011;10952;50.836;4.348;2023-02-28T16:15:07;10.20;;;3.93;;
21581;SDS011;10952;50.836;4.348;2023-02-28T16:17:46;8.70;;;3.90;;
21581;SDS011;10952;50.836;4.348;2023-02-28T16:20:32;5.80;;;4.10;;
21581;SDS011;10952;50.836;4.348;2023-02-28T16:22:57;8.17;;;4.00;;
21581;SDS011;10952;50.836;4.348;2023-02-28T16:25:33;7.30;;;3.70;;
21581;SDS011;10952;50.836;4.348;2023-02-28T16:27:59;7.17;;;3.53;;
21581;SDS011;10952;50.836;4.348;2023-02-28T16:30:26;6.87;;;3.27;;
21581;SDS011;10952;50.836;4.348;2023-02-28T16:32:54;5.43;;;3.27;;
21581;SDS011;10952;50.836;4.348;2023-02-28T16:35:20;6.63;;;3.97;;
21581;SDS011;10952;50.836;4.348;2023-02-28T16:37:46;6.03;;;3.47;;
21581;SDS011;10952;50.836;4.348;2023-02-28T16:40:16;6.47;;;3.60;;
21581;SDS011;10952;50.836;4.348;2023-02-28T16:42:50;11.97;;;6.50;;
21581;SDS011;10952;50.836;4.348;2023-02-28T16:45:22;7.33;;;3.97;;
21581;SDS011;10952;50.836;4.348;2023-02-28T16:47:50;8.40;;;3.53;;
21581;SDS011;10952;50.836;4.348;2023-02-28T16:50:20;6.77;;;3.47;;
21581;SDS011;10952;50.836;4.348;2023-02-28T16:52:50;11.67;;;4.37;;
21581;SDS011;10952;50.836;4.348;2023-02-28T16:55:19;7.87;;;3.53;;
21581;SDS011;10952;50.836;4.348;2023-02-28T16:57:55;5.67;;;3.07;;
21581;SDS011;10952;50.836;4.348;2023-02-28T17:00:24;4.70;;;3.20;;
21581;SDS011;10952;50.836;4.348;2023-02-28T17:02:50;4.30;;;3.23;;
21581;SDS011;10952;50.836;4.348;2023-02-28T17:05:16;6.23;;;3.57;;
21581;SDS011;10952;50.836;4.348;2023-02-28T17:07:43;8.73;;;3.40;;
21581;SDS011;10952;50.836;4.348;2023-02-28T17:10:15;5.47;;;3.20;;
21581;SDS011;10952;50.836;4.348;2023-02-28T17:12:44;5.70;;;3.67;;
21581;SDS011;10952;50.836;4.348;2023-02-28T17:15:11;5.83;;;3.70;;
21581;SDS011;10952;50.836;4.348;2023-02-28T17:17:41;7.17;;;3.30;;
21581;SDS011;10952;50.836;4.348;2023-02-28T17:20:18;7.23;;;3.87;;
21581;SDS011;10952;50.836;4.348;2023-02-28T17:22:49;7.57;;;3.83;;
21581;SDS011;10952;50.836;4.348;2023-02-28T17:25:15;10.23;;;3.13;;
21581;SDS011;10952;50.836;4.348;2023-02-28T17:27:41;5.43;;;3.13;;
21581;SDS011;10952;50.836;4.348;2023-02-28T17:30:24;9.63;;;3.57;;
21581;SDS011;10952;50.836;4.348;2023-02-28T17:32:53;5.33;;;3.80;;
21581;SDS011;10952;50.836;4.348;2023-02-28T17:35:22;10.80;;;5.13;;
21581;SDS011;10952;50.836;4.348;2023-02-28T17:37:48;9.13;;;4.57;;
21581;SDS011;10952;50.836;4.348;2023-02-28T17:40:15;7.07;;;3.87;;
21581;SDS011;10952;50.836;4.348;2023-02-28T17:42:44;4.67;;;3.10;;
21581;SDS011;10952;50.836;4.348;2023-02-28T17:45:11;8.43;;;3.40;;
21581;SDS011;10952;50.836;4.348;2023-02-28T17:47:38;9.50;;;4.07;;
21581;SDS011;10952;50.836;4.348;2023-02-28T17:50:04;9.13;;;4.23;;
21581;SDS011;10952;50.836;4.348;2023-02-28T17:52:30;8.87;;;4.57;;
21581;SDS011;10952;50.836;4.348;2023-02-28T17:55:01;9.87;;;4.60;;
21581;SDS011;10952;50.836;4.348;2023-02-28T17:57:28;8.57;;;4.37;;
21581;SDS011;10952;50.836;4.348;2023-02-28T17:59:56;6.33;;;3.67;;
21581;SDS011;10952;50.836;4.348;2023-02-28T18:02:22;8.33;;;3.93;;
21581;SDS011;10952;50.836;4.348;2023-02-28T18:04:50;5.83;;;3.77;;
21581;SDS011;10952;50.836;4.348;2023-02-28T18:09:47;9.33;;;4.20;;
21581;SDS011;10952;50.836;4.348;2023-02-28T18:12:13;10.67;;;4.97;;
21581;SDS011;10952;50.836;4.348;2023-02-28T18:14:48;9.53;;;4.30;;
21581;SDS011;10952;50.836;4.348;2023-02-28T18:17:19;7.77;;;4.00;;
21581;SDS011;10952;50.836;4.348;2023-02-28T18:22:14;8.57;;;4.63;;
21581;SDS011;10952;50.836;4.348;2023-02-28T18:24:40;9.53;;;4.33;;
21581;SDS011;10952;50.836;4.348;2023-02-28T18:27:06;8.20;;;4.97;;
21581;SDS011;10952;50.836;4.348;2023-02-28T18:29:32;19.37;;;5.27;;
21581;SDS011;10952;50.836;4.348;2023-02-28T18:31:57;12.97;;;5.33;;
21581;SDS011;10952;50.836;4.348;2023-02-28T18:34:23;8.27;;;4.80;;
21581;SDS011;10952;50.836;4.348;2023-02-28T18:36:50;13.27;;;5.67;;
21581;SDS011;10952;50.836;4.348;2023-02-28T18:41:46;15.70;;;5.83;;
21581;SDS011;10952;50.836;4.348;2023-02-28T18:46:44;12.03;;;4.70;;
21581;SDS011;10952;50.836;4.348;2023-02-28T18:51:41;7.77;;;5.10;;
21581;SDS011;10952;50.836;4.348;2023-02-28T18:56:40;10.67;;;4.90;;
21581;SDS011;10952;50.836;4.348;2023-02-28T18:59:10;10.80;;;6.53;;
21581;SDS011;10952;50.836;4.348;2023-02-28T19:01:37;8.17;;;5.20;;
21581;SDS011;10952;50.836;4.348;2023-02-28T19:04:04;10.83;;;5.43;;
21581;SDS011;10952;50.836;4.348;2023-02-28T19:06:30;12.07;;;6.07;;
21581;SDS011;10952;50.836;4.348;2023-02-28T19:08:58;11.20;;;6.17;;